Time;durP1;ratioP1;P1;durP2;ratioP2;P2;SDS_P1;SDS_P2;PMS_P1;PMS_P2;Temp;Humidity;BMP_temperature;BMP_pressure;BME280_temperature;BME280_humidity;BME280_pressure;Samples;Min_cycle;Max_cycle;Signal;HPM_P1;HPM_P2
2022/10/12 00:00:30;;;;;;;11.10;3.37;;;9.60;90.60;;;;;;5036607;28;20025;-80
2022/10/12 00:02:56;;;;;;;8.27;2.90;;;9.60;90.70;;;;;;5037634;28;20029;-80
2022/10/12 00:05:21;;;;;;;12.10;3.63;;;9.60;90.70;;;;;;5036941;28;20036;-80
2022/10/12 00:07:47;;;;;;;16.63;3.57;;;9.50;90.70;;;;;;5036988;28;20043;-80
2022/10/12 00:10:13;;;;;;;9.70;2.70;;;9.60;90.80;;;;;;5036305;28;20041;-80
2022/10/12 00:12:39;;;;;;;8.43;3.17;;;9.60;90.80;;;;;;5020398;28;20386;-80
2022/10/12 00:15:05;;;;;;;8.20;2.60;;;9.60;90.80;;;;;;5036688;28;20087;-80
2022/10/12 00:17:31;;;;;;;7.83;2.63;;;9.50;90.80;;;;;;5036062;28;20075;-80
2022/10/12 00:19:57;;;;;;;10.60;2.50;;;9.50;90.90;;;;;;5036386;28;20025;-80
2022/10/12 00:22:22;;;;;;;5.57;1.93;;;9.50;90.90;;;;;;5053967;28;20025;-80
2022/10/12 00:24:48;;;;;;;10.17;2.00;;;9.50;90.90;;;;;;5036185;28;20036;-80
2022/10/12 00:27:14;;;;;;;8.43;1.87;;;9.40;91.00;;;;;;5019612;28;20108;-81
2022/10/12 00:29:39;;;;;;;8.83;1.93;;;9.40;91.00;;;;;;5035923;28;20059;-80
2022/10/12 00:32:05;;;;;;;8.33;2.47;;;9.30;91.10;;;;;;5036291;28;20532;-80
2022/10/12 00:34:30;;;;;;;9.93;2.53;;;9.40;91.40;;;;;;5052417;28;20025;-80
2022/10/12 00:36:56;;;;;;;8.00;2.60;;;9.40;91.30;;;;;;5036426;28;20025;-80
2022/10/12 00:39:22;;;;;;;13.50;3.43;;;9.40;91.30;;;;;;5036048;28;20051;-85
2022/10/12 00:41:47;;;;;;;9.57;2.80;;;9.30;91.30;;;;;;5052939;28;20079;-85
2022/10/12 00:44:37;;;;;;;10.10;3.80;;;9.30;91.40;;;;;;5019839;28;20025;-85
2022/10/12 00:47:13;;;;;;;10.87;3.63;;;9.30;91.50;;;;;;5052906;28;20024;-85
2022/10/12 00:49:39;;;;;;;11.63;4.10;;;9.30;91.60;;;;;;5051574;28;20154;-85
2022/10/12 00:52:10;;;;;;;8.53;3.33;;;9.30;91.60;;;;;;5035290;28;20481;-85
2022/10/12 00:54:41;;;;;;;9.43;2.77;;;9.30;91.60;;;;;;5052740;28;20130;-85
2022/10/12 00:57:10;;;;;;;8.87;3.33;;;9.30;91.70;;;;;;5052330;28;20036;-80
2022/10/12 00:59:42;;;;;;;8.03;3.13;;;9.30;91.70;;;;;;5052414;28;20116;-80
2022/10/12 01:02:07;;;;;;;9.27;3.07;;;9.20;91.80;;;;;;5052049;28;20074;-85
2022/10/12 01:04:34;;;;;;;11.00;2.97;;;9.20;91.80;;;;;;5052032;28;20346;-85
2022/10/12 01:07:00;;;;;;;7.93;2.93;;;9.20;91.80;;;;;;5036034;28;20033;-85
2022/10/12 01:09:26;;;;;;;7.33;2.60;;;9.10;91.80;;;;;;5035793;28;20036;-85
2022/10/12 01:11:52;;;;;;;7.27;2.60;;;9.20;91.90;;;;;;5035545;28;20048;-85
2022/10/12 01:14:18;;;;;;;8.77;3.13;;;9.20;91.90;;;;;;5052392;28;20108;-85
2022/10/12 01:16:47;;;;;;;7.10;2.57;;;9.10;91.90;;;;;;5052257;28;20113;-85
2022/10/12 01:19:50;;;;;;;7.57;2.10;;;9.10;92.00;;;;;;5052227;28;20029;-85
2022/10/12 01:22:19;;;;;;;8.30;2.60;;;9.10;92.00;;;;;;5052318;28;20029;-85
2022/10/12 01:25:05;;;;;;;10.30;2.53;;;9.00;92.00;;;;;;5053378;28;20096;-85
2022/10/12 01:27:42;;;;;;;8.50;2.63;;;9.00;92.10;;;;;;5022387;28;20494;-85
2022/10/12 01:30:12;;;;;;;7.77;2.27;;;9.00;92.20;;;;;;5053167;28;20083;-84
2022/10/12 01:33:02;;;;;;;5.00;1.43;;;9.00;92.20;;;;;;5051909;28;20111;-85
2022/10/12 01:35:59;;;;;;;6.23;2.17;;;9.10;92.30;;;;;;5053610;28;20557;-85
2022/10/12 01:38:41;;;;;;;8.27;2.70;;;9.00;92.40;;;;;;5052429;28;20481;-85
2022/10/12 01:41:25;;;;;;;7.37;2.37;;;8.90;92.40;;;;;;5053261;28;20017;-85
2022/10/12 01:43:51;;;;;;;9.20;2.45;;;9.00;92.70;;;;;;5035745;28;20024;-85
2022/10/12 01:46:17;;;;;;;11.77;2.40;;;9.00;92.50;;;;;;5052107;28;20506;-85
2022/10/12 01:48:45;;;;;;;7.00;2.37;;;8.90;92.60;;;;;;5052283;28;20033;-85
2022/10/12 01:51:15;;;;;;;8.10;2.50;;;9.00;92.70;;;;;;5035367;28;20029;-85
2022/10/12 01:53:43;;;;;;;7.83;2.30;;;9.00;92.70;;;;;;5052039;28;20013;-85
2022/10/12 01:56:30;;;;;;;9.37;2.87;;;9.00;92.80;;;;;;5035701;28;20014;-85
2022/10/12 01:59:13;;;;;;;8.57;2.40;;;9.00;92.90;;;;;;5051814;28;20032;-84
2022/10/12 02:01:49;;;;;;;9.37;3.37;;;9.00;92.90;;;;;;5053196;28;20025;-84
2022/10/12 02:04:47;;;;;;;9.27;2.77;;;8.90;92.90;;;;;;5051773;28;20448;-85
2022/10/12 02:07:31;;;;;;;11.00;3.20;;;8.90;92.90;;;;;;5053023;28;20025;-85
2022/10/12 02:09:57;;;;;;;;;;;8.90;93.00;;;;;;5051938;28;20021;-85
2022/10/12 02:12:27;;;;;;;12.13;2.53;;;8.90;93.00;;;;;;5035244;28;20079;-85
2022/10/12 02:14:56;;;;;;;16.57;3.30;;;8.90;92.90;;;;;;5051824;28;20110;-85
2022/10/12 02:17:22;;;;;;;10.87;3.00;;;8.80;92.90;;;;;;5052791;28;20021;-85
2022/10/12 02:19:56;;;;;;;7.47;2.57;;;8.90;93.00;;;;;;5056696;28;20094;-85
2022/10/12 02:22:25;;;;;;;5.82;2.45;;;8.80;93.00;;;;;;5055197;28;20519;-85
2022/10/12 02:24:55;;;;;;;6.90;2.20;;;8.80;93.00;;;;;;5055178;28;20028;-85
2022/10/12 02:27:22;;;;;;;7.47;2.40;;;8.80;93.10;;;;;;5038487;28;20496;-84
2022/10/12 02:29:48;;;;;;;12.57;3.07;;;8.80;93.10;;;;;;5039550;28;20396;-85
2022/10/12 02:32:53;;;;;;;4.90;2.13;;;8.90;93.20;;;;;;5055146;28;20045;-84
2022/10/12 02:35:51;;;;;;;6.47;2.40;;;8.80;93.30;;;;;;5006006;28;20025;-85
2022/10/12 02:38:27;;;;;;;6.10;2.20;;;8.80;93.40;;;;;;5056162;28;20028;-80
2022/10/12 02:40:57;;;;;;;9.83;2.70;;;8.80;93.50;;;;;;5055851;28;20377;-80
2022/10/12 02:43:35;;;;;;;5.47;1.87;;;8.80;93.50;;;;;;5055806;28;20025;-80
2022/10/12 02:46:05;;;;;;;5.37;2.10;;;8.80;93.60;;;;;;5054595;28;20040;-80
2022/10/12 02:48:33;;;;;;;8.47;2.23;;;8.80;93.70;;;;;;5054512;28;20032;-80
2022/10/12 02:50:59;;;;;;;9.53;2.63;;;8.80;93.70;;;;;;5037847;28;20029;-80
2022/10/12 02:53:26;;;;;;;9.30;2.00;;;8.80;93.80;;;;;;5038213;28;20099;-80
2022/10/12 02:55:58;;;;;;;6.33;2.17;;;8.80;93.80;;;;;;5054452;28;20103;-80
2022/10/12 02:58:24;;;;;;;6.33;2.33;;;8.80;93.90;;;;;;5054331;28;20017;-80
2022/10/12 03:00:50;;;;;;;7.17;2.60;;;8.70;94.00;;;;;;5054177;28;20021;-80
2022/10/12 03:03:16;;;;;;;7.57;2.23;;;8.70;94.00;;;;;;5037692;28;20091;-80
2022/10/12 03:05:42;;;;;;;7.00;2.50;;;8.70;94.10;;;;;;5054162;28;20111;-80
2022/10/12 03:08:07;;;;;;;7.47;2.43;;;8.80;94.10;;;;;;5054166;28;20127;-80
2022/10/12 03:10:33;;;;;;;7.10;2.17;;;8.70;94.10;;;;;;5053895;28;20045;-84
2022/10/12 03:12:59;;;;;;;11.40;2.73;;;8.70;94.40;;;;;;5037731;28;20056;-85
2022/10/12 03:15:24;;;;;;;7.27;2.00;;;8.70;94.20;;;;;;5037786;28;20021;-85
2022/10/12 03:17:50;;;;;;;7.77;2.30;;;8.70;94.20;;;;;;5037693;28;20025;-85
2022/10/12 03:20:16;;;;;;;8.00;2.93;;;8.70;94.30;;;;;;5054464;28;20112;-85
2022/10/12 03:22:41;;;;;;;9.07;2.73;;;8.70;94.40;;;;;;5037864;28;20029;-85
2022/10/12 03:25:07;;;;;;;6.67;2.70;;;8.70;94.40;;;;;;5021296;28;20056;-85
2022/10/12 03:27:33;;;;;;;7.20;2.40;;;8.70;94.80;;;;;;5037221;28;20485;-85
2022/10/12 03:29:58;;;;;;;7.13;3.37;;;8.60;94.50;;;;;;5037248;28;20481;-85
2022/10/12 03:32:24;;;;;;;10.37;4.00;;;8.60;94.60;;;;;;5021162;28;20120;-85
2022/10/12 03:34:50;;;;;;;12.10;3.33;;;8.60;94.70;;;;;;5054173;28;20094;-85
2022/10/12 03:37:15;;;;;;;12.63;3.57;;;8.70;94.70;;;;;;5055220;28;20025;-85
2022/10/12 03:39:41;;;;;;;10.93;4.57;;;8.60;94.60;;;;;;5037422;28;20029;-84
2022/10/12 03:42:07;;;;;;;12.03;4.23;;;8.60;94.60;;;;;;5037356;28;20512;-85
2022/10/12 03:44:32;;;;;;;12.00;4.00;;;8.70;94.60;;;;;;5037186;28;20040;-85
2022/10/12 03:46:58;;;;;;;13.77;4.37;;;8.50;94.60;;;;;;5053982;28;20370;-85
2022/10/12 03:49:23;;;;;;;14.23;4.73;;;8.50;94.70;;;;;;5037176;28;20036;-85
2022/10/12 03:51:49;;;;;;;11.23;4.20;;;8.50;94.70;;;;;;5037404;28;20500;-85
2022/10/12 03:54:15;;;;;;;12.97;4.70;;;8.40;94.60;;;;;;5037248;28;20031;-85
2022/10/12 03:56:41;;;;;;;15.43;5.00;;;8.40;94.60;;;;;;5037169;28;20067;-85
2022/10/12 03:59:07;;;;;;;11.87;4.10;;;8.30;94.50;;;;;;5053704;28;20021;-85
2022/10/12 04:01:32;;;;;;;10.97;4.20;;;8.30;94.60;;;;;;5054603;28;20047;-85
2022/10/12 04:03:58;;;;;;;12.20;4.20;;;8.30;94.60;;;;;;5013539;28;20534;-85
2022/10/12 04:06:23;;;;;;;12.27;4.20;;;8.30;94.60;;;;;;5036867;28;20029;-85
2022/10/12 04:08:49;;;;;;;12.60;4.10;;;8.30;94.70;;;;;;5036607;28;20026;-85
2022/10/12 04:11:15;;;;;;;13.63;4.10;;;8.20;94.70;;;;;;5053364;28;20056;-86
2022/10/12 04:13:41;;;;;;;10.10;3.73;;;8.10;94.70;;;;;;5036788;28;20032;-85
2022/10/12 04:16:08;;;;;;;11.80;4.17;;;8.20;94.80;;;;;;5036651;28;20028;-85
2022/10/12 04:18:35;;;;;;;14.43;4.40;;;8.10;94.80;;;;;;5053505;28;20025;-85
2022/10/12 04:21:01;;;;;;;14.17;4.60;;;8.10;94.90;;;;;;5053694;28;20103;-85
2022/10/12 04:23:26;;;;;;;10.90;3.90;;;8.10;94.90;;;;;;5037758;28;20037;-85
2022/10/12 04:25:52;;;;;;;14.33;4.43;;;8.00;94.90;;;;;;5054061;28;20025;-85
2022/10/12 04:28:18;;;;;;;16.27;4.30;;;8.00;94.90;;;;;;5052659;28;20029;-84
2022/10/12 04:30:44;;;;;;;9.77;3.40;;;8.00;94.90;;;;;;5052749;28;20032;-84
2022/10/12 04:33:10;;;;;;;12.10;3.97;;;7.90;95.00;;;;;;5053352;28;20033;-85
2022/10/12 04:35:36;;;;;;;11.93;4.13;;;7.90;95.10;;;;;;5036686;28;20359;-85
2022/10/12 04:38:02;;;;;;;11.60;4.13;;;7.90;95.10;;;;;;5019616;28;20056;-84
2022/10/12 04:40:27;;;;;;;8.40;3.47;;;7.90;95.10;;;;;;5035666;28;20078;-85
2022/10/12 04:42:54;;;;;;;6.87;2.77;;;7.90;95.20;;;;;;5036072;28;20078;-85
2022/10/12 04:45:20;;;;;;;9.90;3.37;;;7.90;95.20;;;;;;5035957;28;20037;-84
2022/10/12 04:47:46;;;;;;;7.40;3.03;;;7.80;95.20;;;;;;5053780;28;20037;-85
2022/10/12 04:50:11;;;;;;;10.93;3.67;;;7.70;95.20;;;;;;5036250;28;20068;-85
2022/10/12 04:52:37;;;;;;;10.83;3.57;;;7.70;95.30;;;;;;5036379;28;20116;-85
2022/10/12 04:55:03;;;;;;;9.83;3.97;;;7.60;95.30;;;;;;5036343;28;20119;-85
2022/10/12 04:57:29;;;;;;;11.70;4.33;;;7.70;95.40;;;;;;5035849;28;20024;-85
2022/10/12 04:59:55;;;;;;;12.90;4.47;;;7.70;95.50;;;;;;5035819;28;20111;-85
2022/10/12 05:02:20;;;;;;;9.90;4.27;;;7.70;95.60;;;;;;5036129;28;20033;-85
2022/10/12 05:04:46;;;;;;;8.57;4.13;;;7.70;95.70;;;;;;5035660;28;20064;-85
2022/10/12 05:07:11;;;;;;;11.53;4.17;;;7.70;95.80;;;;;;5035693;28;20037;-84
2022/10/12 05:09:37;;;;;;;12.63;4.40;;;7.60;96.20;;;;;;5035492;28;20037;-85
2022/10/12 05:12:03;;;;;;;11.43;4.23;;;7.70;96.00;;;;;;5052067;28;20087;-85
2022/10/12 05:14:29;;;;;;;12.53;4.97;;;7.70;96.10;;;;;;5035517;28;20033;-85
2022/10/12 05:16:55;;;;;;;12.43;4.63;;;7.80;96.20;;;;;;5035225;28;20055;-85
2022/10/12 05:19:20;;;;;;;13.77;4.70;;;7.70;96.20;;;;;;5049530;28;20033;-85
2022/10/12 05:21:46;;;;;;;16.33;4.93;;;7.70;96.30;;;;;;5005567;28;20041;-85
2022/10/12 05:24:12;;;;;;;12.23;5.10;;;7.60;96.30;;;;;;5006946;28;20201;-84
2022/10/12 05:26:37;;;;;;;17.77;6.33;;;7.80;96.40;;;;;;5026623;28;20039;-85
2022/10/12 05:29:03;;;;;;;15.57;5.60;;;7.60;96.40;;;;;;5019128;28;20029;-85
2022/10/12 05:31:29;;;;;;;14.80;4.80;;;7.70;96.50;;;;;;5019111;28;20032;-85
2022/10/12 05:33:55;;;;;;;12.00;5.03;;;7.80;96.60;;;;;;5018933;28;20442;-85
2022/10/12 05:36:20;;;;;;;15.37;5.97;;;7.70;96.60;;;;;;5035386;28;20044;-85
2022/10/12 05:38:46;;;;;;;13.97;5.47;;;7.70;96.70;;;;;;5035310;28;20477;-85
2022/10/12 05:41:12;;;;;;;17.13;5.90;;;7.70;97.00;;;;;;5053383;28;20032;-85
2022/10/12 05:43:38;;;;;;;11.83;5.30;;;7.70;96.70;;;;;;5035560;28;20062;-85
2022/10/12 05:46:06;;;;;;;10.40;5.07;;;7.70;96.80;;;;;;5035587;28;20031;-85
2022/10/12 05:48:32;;;;;;;12.83;5.67;;;7.70;96.80;;;;;;5019251;28;20033;-84
2022/10/12 05:50:58;;;;;;;15.63;5.27;;;7.60;96.80;;;;;;5019294;28;20371;-85
2022/10/12 05:53:23;;;;;;;11.80;5.33;;;7.70;96.90;;;;;;5023448;28;20354;-85
2022/10/12 05:55:57;;;;;;;15.60;5.90;;;7.70;96.90;;;;;;5039258;28;20065;-85
2022/10/12 05:58:24;;;;;;;12.32;6.07;;;7.60;96.90;;;;;;5039162;28;20469;-84
2022/10/12 06:00:51;;;;;;;26.47;5.83;;;7.70;97.20;;;;;;5022697;28;20033;-85
2022/10/12 06:03:17;;;;;;;14.53;5.87;;;7.60;97.00;;;;;;5022720;28;20094;-85
2022/10/12 06:05:43;;;;;;;15.70;6.10;;;7.70;97.00;;;;;;5056850;28;20033;-85
2022/10/12 06:08:09;;;;;;;17.50;6.10;;;7.70;97.10;;;;;;5022689;28;20078;-85
2022/10/12 06:10:36;;;;;;;21.17;7.00;;;7.70;97.10;;;;;;5038911;28;20045;-80
2022/10/12 06:13:02;;;;;;;19.67;6.97;;;7.70;97.20;;;;;;5039111;28;20109;-85
2022/10/12 06:15:28;;;;;;;14.70;5.83;;;7.80;97.30;;;;;;5023148;28;20060;-84
2022/10/12 06:17:54;;;;;;;11.53;5.70;;;7.70;97.40;;;;;;5038392;28;20017;-85
2022/10/12 06:20:20;;;;;;;16.33;6.63;;;7.70;97.50;;;;;;5057385;28;20029;-84
2022/10/12 06:22:45;;;;;;;20.00;6.03;;;7.80;97.50;;;;;;5055625;28;20037;-84
2022/10/12 06:25:11;;;;;;;16.13;5.47;;;7.80;97.60;;;;;;5022129;28;20104;-84
2022/10/12 06:27:36;;;;;;;16.40;5.67;;;7.90;97.70;;;;;;5038267;28;20029;-85
2022/10/12 06:30:03;;;;;;;15.57;5.97;;;7.90;97.70;;;;;;5021487;28;20029;-84
2022/10/12 06:32:28;;;;;;;19.67;6.67;;;8.00;97.80;;;;;;5022067;28;20473;-84
2022/10/12 06:34:54;;;;;;;15.47;6.13;;;8.00;97.80;;;;;;5038690;28;20052;-84
2022/10/12 06:37:20;;;;;;;14.10;6.00;;;8.10;97.80;;;;;;5021885;28;20029;-85
2022/10/12 06:39:45;;;;;;;18.30;6.80;;;8.10;97.80;;;;;;5021669;28;20449;-84
2022/10/12 06:42:11;;;;;;;18.37;8.57;;;8.10;97.80;;;;;;5005304;28;20025;-82
2022/10/12 06:44:36;;;;;;;16.57;6.07;;;8.20;97.90;;;;;;5021613;28;20477;-83
2022/10/12 06:47:02;;;;;;;15.50;6.80;;;8.10;97.90;;;;;;5021558;28;20408;-83
2022/10/12 06:49:28;;;;;;;16.60;6.50;;;8.30;97.90;;;;;;5038184;28;20025;-82
2022/10/12 06:51:53;;;;;;;16.90;6.93;;;8.20;97.90;;;;;;5005510;28;20029;-82
2022/10/12 06:54:19;;;;;;;18.77;6.50;;;8.30;97.90;;;;;;5022377;28;20381;-82
2022/10/12 06:56:45;;;;;;;21.27;7.83;;;8.30;97.90;;;;;;5038238;28;20025;-83
2022/10/12 06:59:12;;;;;;;16.70;6.70;;;8.40;98.00;;;;;;5037847;28;20079;-83
2022/10/12 07:01:38;;;;;;;16.60;6.77;;;8.40;98.00;;;;;;5037846;28;20108;-83
2022/10/12 07:04:03;;;;;;;16.30;7.07;;;8.50;98.10;;;;;;5020986;28;20060;-83
2022/10/12 07:06:30;;;;;;;13.40;6.93;;;8.50;98.00;;;;;;5021289;28;20489;-84
2022/10/12 07:08:55;;;;;;;22.40;8.73;;;8.50;98.00;;;;;;5055499;28;20025;-84
2022/10/12 07:11:21;;;;;;;12.93;7.23;;;8.60;98.10;;;;;;5021218;28;20056;-84
2022/10/12 07:13:47;;;;;;;17.80;7.07;;;8.70;98.10;;;;;;5037652;28;20020;-83
2022/10/12 07:16:13;;;;;;;18.33;7.07;;;8.70;98.10;;;;;;5037734;28;20013;-84
2022/10/12 07:18:39;;;;;;;14.63;7.20;;;8.70;98.00;;;;;;5021273;28;20021;-83
2022/10/12 07:21:05;;;;;;;16.53;7.07;;;8.80;98.10;;;;;;5021206;28;20021;-83
2022/10/12 07:23:32;;;;;;;15.33;7.47;;;8.70;98.00;;;;;;5037758;28;20033;-83
2022/10/12 07:25:58;;;;;;;13.90;7.03;;;8.90;98.00;;;;;;5021070;28;20494;-84
2022/10/12 07:28:24;;;;;;;16.23;7.03;;;8.90;98.20;;;;;;5037495;28;20021;-84
2022/10/12 07:30:50;;;;;;;18.20;6.83;;;8.90;97.90;;;;;;5037395;28;20388;-84
2022/10/12 07:33:16;;;;;;;17.50;6.83;;;8.90;97.90;;;;;;5037452;28;20025;-79
2022/10/12 07:35:41;;;;;;;20.10;7.03;;;9.00;97.90;;;;;;5037175;28;20021;-80
2022/10/12 07:38:07;;;;;;;12.40;6.13;;;9.00;97.80;;;;;;5036938;28;20021;-80
2022/10/12 07:40:33;;;;;;;10.87;6.30;;;9.00;97.80;;;;;;5055069;28;20035;-80
2022/10/12 07:42:59;;;;;;;18.37;7.83;;;9.00;97.70;;;;;;5036903;28;20029;-79
2022/10/12 07:45:27;;;;;;;13.90;6.77;;;9.00;97.60;;;;;;5036629;28;20079;-80
2022/10/12 07:47:56;;;;;;;14.07;7.80;;;9.00;97.80;;;;;;5020660;28;20029;-80
2022/10/12 07:50:22;;;;;;;17.17;8.03;;;9.00;97.40;;;;;;5004552;28;20033;-80
2022/10/12 07:52:47;;;;;;;15.60;7.97;;;9.10;97.30;;;;;;5036580;28;20071;-80
2022/10/12 07:55:13;;;;;;;14.73;7.73;;;9.10;97.20;;;;;;5054570;28;20021;-79
2022/10/12 07:57:39;;;;;;;16.47;7.67;;;9.00;97.10;;;;;;5038076;28;20107;-79
2022/10/12 08:00:05;;;;;;;14.37;7.53;;;9.00;97.10;;;;;;5036769;28;20424;-79
2022/10/12 08:02:31;;;;;;;17.93;7.70;;;9.00;97.10;;;;;;5020356;28;20029;-79
2022/10/12 08:04:57;;;;;;;19.70;8.30;;;9.10;97.10;;;;;;5020268;28;20078;-79
2022/10/12 08:07:22;;;;;;;16.30;7.43;;;9.10;97.10;;;;;;5003710;28;20017;-79
2022/10/12 08:09:48;;;;;;;20.40;8.40;;;9.10;97.20;;;;;;5011501;28;20459;-79
2022/10/12 08:12:14;;;;;;;18.73;7.30;;;9.10;97.30;;;;;;5032999;28;20094;-79
2022/10/12 08:14:39;;;;;;;16.10;7.60;;;9.20;97.30;;;;;;5015494;28;20029;-80
2022/10/12 08:17:05;;;;;;;17.47;7.20;;;9.20;97.30;;;;;;5034242;28;20393;-80
2022/10/12 08:19:31;;;;;;;13.30;8.00;;;9.40;97.70;;;;;;5017830;28;20033;-79
2022/10/12 08:21:57;;;;;;;14.47;7.73;;;9.50;97.40;;;;;;5048632;28;20381;-80
2022/10/12 08:24:22;;;;;;;20.97;8.17;;;9.50;97.40;;;;;;5016485;28;20552;-79
2022/10/12 08:26:48;;;;;;;16.50;9.00;;;9.50;97.40;;;;;;5016312;28;20036;-80
2022/10/12 08:29:14;;;;;;;19.37;8.90;;;9.70;97.50;;;;;;5015990;28;20021;-80
2022/10/12 08:31:40;;;;;;;16.87;8.17;;;9.80;97.50;;;;;;5016491;28;20051;-80
2022/10/12 08:34:05;;;;;;;16.00;8.97;;;9.90;97.40;;;;;;5016317;28;20474;-80
2022/10/12 08:36:31;;;;;;;14.77;8.53;;;10.00;97.40;;;;;;5000291;28;20530;-84
2022/10/12 08:38:57;;;;;;;16.10;7.67;;;10.20;97.30;;;;;;5017140;28;20030;-83
2022/10/12 08:41:25;;;;;;;12.80;8.27;;;10.20;97.30;;;;;;5019646;28;20025;-84
2022/10/12 08:44:39;;;;;;;18.70;8.30;;;10.30;97.20;;;;;;5035944;28;20026;-84
2022/10/12 08:47:13;;;;;;;19.37;8.73;;;10.40;97.00;;;;;;4986881;28;20068;-84
2022/10/12 08:49:39;;;;;;;;;;;10.50;96.70;;;;;;5034139;28;20033;-83
2022/10/12 08:52:22;;;;;;;15.57;7.73;;;10.60;96.50;;;;;;5021209;28;20361;-84
2022/10/12 08:54:48;;;;;;;14.70;7.67;;;10.60;96.60;;;;;;5032566;28;20105;-83
2022/10/12 08:57:16;;;;;;;17.63;7.93;;;10.60;96.20;;;;;;5032538;28;20056;-84
2022/10/12 08:59:43;;;;;;;17.37;8.23;;;10.70;96.10;;;;;;5032461;28;20017;-84
2022/10/12 09:03:04;;;;;;;16.33;7.45;;;10.70;96.00;;;;;;5016291;28;20029;-84
2022/10/12 09:05:45;;;;;;;13.52;6.90;;;10.80;95.90;;;;;;4999743;28;20064;-84
2022/10/12 09:08:44;;;;;;;15.57;7.60;;;10.80;95.80;;;;;;5016396;28;20025;-84
2022/10/12 09:11:43;;;;;;;15.27;7.40;;;10.80;95.60;;;;;;5032260;28;20514;-84
2022/10/12 09:14:31;;;;;;;17.58;8.13;;;10.90;95.40;;;;;;5015850;28;20033;-84
2022/10/12 09:16:59;;;;;;;19.83;8.43;;;10.90;95.40;;;;;;5032078;28;20101;-84
2022/10/12 09:19:35;;;;;;;14.55;7.25;;;11.00;95.40;;;;;;5016373;28;20061;-83
2022/10/12 09:22:02;;;;;;;13.43;7.60;;;11.10;95.30;;;;;;5032223;28;20375;-84
2022/10/12 09:24:35;;;;;;;17.40;7.70;;;11.20;95.30;;;;;;5032167;28;20607;-83
2022/10/12 09:27:13;;;;;;;15.33;6.87;;;11.20;95.20;;;;;;5034487;28;20496;-84
2022/10/12 09:29:39;;;;;;;15.52;7.15;;;11.30;95.10;;;;;;5036524;28;20029;-84
2022/10/12 09:32:32;;;;;;;15.48;6.95;;;11.40;95.10;;;;;;5036353;28;20025;-85
2022/10/12 09:34:58;;;;;;;15.02;7.45;;;11.50;95.00;;;;;;5037550;28;20029;-83
2022/10/12 09:37:28;;;;;;;14.80;6.45;;;11.70;94.80;;;;;;5019737;28;20453;-85
2022/10/12 09:39:54;;;;;;;19.95;6.68;;;11.90;94.70;;;;;;5036279;28;20385;-84
2022/10/12 09:42:20;;;;;;;15.95;6.38;;;12.20;94.50;;;;;;5036269;28;20032;-84
2022/10/12 09:44:54;;;;;;;14.10;6.13;;;12.60;94.30;;;;;;5036575;28;20481;-84
2022/10/12 09:47:20;;;;;;;13.85;5.63;;;13.00;94.20;;;;;;5037716;28;20474;-84
2022/10/12 09:49:50;;;;;;;13.32;5.13;;;13.50;94.40;;;;;;5036794;28;20033;-86
2022/10/12 09:52:37;;;;;;;13.15;4.35;;;14.10;94.40;;;;;;5036375;28;20362;-84
2022/10/12 09:55:06;;;;;;;11.77;3.97;;;14.80;94.60;;;;;;5035522;28;20091;-85
2022/10/12 09:57:35;;;;;;;8.43;3.78;;;15.80;94.60;;;;;;5035800;28;20025;-85
2022/10/12 10:00:22;;;;;;;7.78;3.40;;;16.70;94.20;;;;;;5037480;28;20040;-86
2022/10/12 10:02:49;;;;;;;7.60;3.10;;;17.50;93.10;;;;;;5035651;28;20053;-85
2022/10/12 10:05:28;;;;;;;7.40;3.17;;;18.50;92.20;;;;;;5019368;28;20033;-83
2022/10/12 10:08:13;;;;;;;8.85;3.03;;;19.30;90.20;;;;;;5035872;28;20025;-83
2022/10/12 10:10:51;;;;;;;10.57;3.03;;;20.20;86.10;;;;;;5036014;28;20041;-84
2022/10/12 10:13:18;;;;;;;10.65;3.70;;;21.10;82.70;;;;;;5035684;28;20021;-83
2022/10/12 10:15:50;;;;;;;8.90;3.03;;;21.90;80.20;;;;;;5035583;28;20036;-84
2022/10/12 10:18:22;;;;;;;10.73;3.25;;;22.60;75.50;;;;;;5036809;28;20396;-84
2022/10/12 10:20:55;;;;;;;8.52;3.00;;;23.20;71.40;;;;;;5035250;28;20033;-84
2022/10/12 10:23:28;;;;;;;8.70;2.97;;;23.80;69.00;;;;;;5035549;28;20025;-83
2022/10/12 10:26:05;;;;;;;8.67;3.17;;;24.30;67.00;;;;;;5035838;28;20033;-84
2022/10/12 10:28:33;;;;;;;14.35;3.20;;;24.60;64.80;;;;;;5036000;28;20033;-83
2022/10/12 10:31:02;;;;;;;8.10;3.95;;;24.90;62.40;;;;;;5035395;28;20021;-84
2022/10/12 10:33:31;;;;;;;9.10;3.53;;;25.20;60.60;;;;;;5036522;28;20381;-83
2022/10/12 10:36:25;;;;;;;11.13;4.22;;;25.30;58.50;;;;;;5035462;28;20034;-83
2022/10/12 10:39:05;;;;;;;9.63;3.75;;;25.20;56.10;;;;;;5033685;28;20556;-84
2022/10/12 10:41:36;;;;;;;8.98;3.72;;;25.10;56.30;;;;;;5035281;28;20022;-84
2022/10/12 10:44:03;;;;;;;8.88;3.67;;;25.00;55.70;;;;;;5034974;28;20065;-84
2022/10/12 10:46:32;;;;;;;10.30;3.63;;;25.10;55.40;;;;;;5019114;28;20045;-84
2022/10/12 10:49:06;;;;;;;11.10;4.30;;;25.20;54.10;;;;;;5018279;28;20136;-83
2022/10/12 10:51:58;;;;;;;10.10;4.45;;;25.40;53.70;;;;;;5034746;28;20363;-84
2022/10/12 10:54:29;;;;;;;12.15;4.63;;;25.50;52.50;;;;;;5033047;28;20037;-83
2022/10/12 10:57:00;;;;;;;12.88;4.20;;;25.70;52.70;;;;;;5034906;28;20021;-84
2022/10/12 10:59:51;;;;;;;10.50;4.45;;;26.00;51.90;;;;;;5036302;28;20025;-83
2022/10/12 11:02:39;;;;;;;9.75;4.22;;;26.10;51.30;;;;;;5019254;28;20028;-84
2022/10/12 11:05:33;;;;;;;8.23;4.00;;;26.40;51.50;;;;;;5037241;28;20017;-85
2022/10/12 11:08:14;;;;;;;13.20;4.40;;;26.50;49.90;;;;;;5034581;28;20401;-84
2022/10/12 11:11:03;;;;;;;8.85;4.00;;;26.50;49.50;;;;;;5035091;28;20049;-84
2022/10/12 11:13:40;;;;;;;9.70;4.40;;;26.60;48.80;;;;;;5019388;28;20024;-84
2022/10/12 11:16:12;;;;;;;7.40;3.92;;;26.70;48.50;;;;;;5036143;28;20018;-84
2022/10/12 11:18:44;;;;;;;11.13;4.25;;;27.00;48.40;;;;;;5036726;28;20477;-84
2022/10/12 11:21:23;;;;;;;8.37;3.90;;;27.20;48.00;;;;;;5037257;28;20025;-84
2022/10/12 11:24:24;;;;;;;9.57;3.10;;;27.70;47.60;;;;;;5036294;28;20030;-85
2022/10/12 11:27:05;;;;;;;7.82;3.78;;;28.20;46.90;;;;;;5035665;28;20087;-87
2022/10/12 11:29:32;;;;;;;11.82;4.00;;;28.70;45.70;;;;;;5035293;28;20520;-84
2022/10/12 11:32:30;;;;;;;8.70;3.95;;;29.10;45.40;;;;;;5034715;28;20037;-83
2022/10/12 11:35:02;;;;;;;10.35;4.47;;;29.50;43.80;;;;;;5023516;28;20041;-85
2022/10/12 11:37:58;;;;;;;8.80;3.92;;;29.80;43.90;;;;;;5018354;28;20021;-83
2022/10/12 11:40:52;;;;;;;9.82;4.40;;;30.00;42.50;;;;;;5009892;28;20036;-84
2022/10/12 11:43:25;;;;;;;9.85;3.92;;;30.30;42.20;;;;;;5028242;28;20041;-86
2022/10/12 11:45:56;;;;;;;8.77;4.78;;;30.60;42.10;;;;;;5034957;28;20045;-84
2022/10/12 11:48:40;;;;;;;9.25;4.43;;;30.80;41.40;;;;;;5034063;28;20026;-85
2022/10/12 11:51:06;;;;;;;10.93;4.57;;;31.10;40.50;;;;;;5035098;28;20017;-84
2022/10/12 11:54:03;;;;;;;7.60;4.25;;;31.20;40.70;;;;;;5018420;28;20037;-85
2022/10/12 11:56:36;;;;;;;7.90;4.03;;;31.40;39.40;;;;;;5033120;28;20030;-84
2022/10/12 11:59:13;;;;;;;10.98;4.53;;;31.50;39.50;;;;;;5033283;28;20029;-85
2022/10/12 12:01:57;;;;;;;7.45;3.65;;;31.30;39.30;;;;;;5033216;28;20026;-84
2022/10/12 12:04:35;;;;;;;9.57;3.78;;;31.00;38.70;;;;;;5034154;28;20075;-86
2022/10/12 12:07:25;;;;;;;11.82;5.18;;;30.60;38.30;;;;;;5033555;28;20087;-85
2022/10/12 12:09:51;;;;;;;10.02;4.38;;;30.10;38.20;;;;;;5033425;28;20048;-86
2022/10/12 12:12:27;;;;;;;9.70;5.22;;;29.50;38.70;;;;;;5030242;28;20490;-83
2022/10/12 12:14:53;;;;;;;10.50;5.28;;;29.00;38.90;;;;;;5013541;28;20030;-86
2022/10/12 12:17:18;;;;;;;12.38;5.60;;;28.60;39.30;;;;;;5030077;28;20033;-86
2022/10/12 12:19:47;;;;;;;12.95;5.10;;;28.20;39.80;;;;;;5029884;28;20075;-87
2022/10/12 12:22:27;;;;;;;9.88;4.88;;;27.80;40.30;;;;;;5029936;28;20014;-87
2022/10/12 12:25:09;;;;;;;13.32;5.10;;;27.60;40.90;;;;;;5029951;28;20053;-87
2022/10/12 12:27:35;;;;;;;14.02;5.45;;;28.20;41.10;;;;;;5014525;28;20109;-87
2022/10/12 12:30:23;;;;;;;11.65;5.22;;;28.70;40.70;;;;;;5029894;28;20450;-88
2022/10/12 12:33:20;;;;;;;9.35;4.50;;;29.10;40.50;;;;;;5013907;28;20410;-86
2022/10/12 12:36:06;;;;;;;10.27;5.22;;;29.40;40.10;;;;;;5029917;28;20049;-87
2022/10/12 12:38:33;;;;;;;11.15;5.20;;;29.30;39.90;;;;;;5013677;28;20062;-87
2022/10/12 12:41:10;;;;;;;10.10;5.15;;;28.90;39.70;;;;;;5014266;28;20037;-85
2022/10/12 12:43:43;;;;;;;10.45;4.70;;;28.50;39.80;;;;;;5015182;28;20466;-88
2022/10/12 12:46:11;;;;;;;9.15;3.63;;;27.90;39.80;;;;;;5029508;28;20022;-86
2022/10/12 12:48:43;;;;;;;10.15;4.30;;;27.40;40.30;;;;;;5029369;28;20108;-82
2022/10/12 12:51:22;;;;;;;10.88;4.85;;;26.90;40.80;;;;;;5014123;28;20114;-83
2022/10/12 12:53:57;;;;;;;12.25;4.28;;;26.40;41.40;;;;;;5013934;28;20549;-83
2022/10/12 12:56:54;;;;;;;12.73;4.00;;;25.80;41.90;;;;;;5013899;28;20096;-83
2022/10/12 12:59:49;;;;;;;12.82;4.05;;;25.40;42.50;;;;;;5012492;28;20474;-82
2022/10/12 13:02:45;;;;;;;10.55;4.07;;;24.90;43.50;;;;;;5027940;28;20038;-82
2022/10/12 13:05:49;;;;;;;9.80;3.28;;;24.40;43.00;;;;;;5029477;28;20393;-82
2022/10/12 13:08:49;;;;;;;10.20;3.87;;;23.90;43.70;;;;;;5028890;28;20076;-82